createdAt,value
2023-02-15T00:00:13.968Z,58.95
2023-02-15T00:03:02.043Z,57.38
2023-02-15T00:05:32.753Z,53.05
2023-02-15T00:08:00.362Z,60.72
2023-02-15T00:10:27.479Z,52.38
2023-02-15T00:12:55.642Z,53.17
2023-02-15T00:15:23.770Z,56.05
2023-02-15T00:17:52.701Z,57.67
2023-02-15T00:20:20.160Z,55.78
2023-02-15T00:22:48.013Z,55.95
2023-02-15T00:25:15.934Z,58.85
2023-02-15T00:27:44.916Z,59.00
2023-02-15T00:30:13.697Z,54.13
2023-02-15T00:32:41.587Z,60.05
2023-02-15T00:35:10.844Z,56.00
2023-02-15T00:37:39.168Z,59.40
2023-02-15T00:40:07.354Z,60.33
2023-02-15T00:42:35.416Z,57.97
2023-02-15T00:45:02.730Z,60.60
2023-02-15T00:47:33.352Z,57.55
2023-02-15T00:50:01.293Z,58.60
2023-02-15T00:52:28.502Z,57.58
2023-02-15T00:54:57.296Z,58.22
2023-02-15T00:57:25.362Z,58.15
2023-02-15T00:59:53.232Z,64.82
2023-02-15T01:02:20.668Z,63.50
2023-02-15T01:04:47.785Z,61.67
2023-02-15T01:07:15.784Z,61.67
2023-02-15T01:09:44.180Z,61.08
2023-02-15T01:12:12.718Z,62.00
2023-02-15T01:14:39.914Z,56.95
2023-02-15T01:17:08.488Z,65.43
2023-02-15T01:19:36.541Z,58.50
2023-02-15T01:22:04.721Z,53.50
2023-02-15T01:24:37.836Z,61.65
2023-02-15T01:27:06.349Z,59.97
2023-02-15T01:29:35.455Z,62.22
2023-02-15T01:32:04.147Z,59.13
2023-02-15T01:34:31.718Z,66.38
2023-02-15T01:37:01.557Z,65.10
2023-02-15T01:39:29.442Z,61.47
2023-02-15T01:42:00.036Z,58.63
2023-02-15T01:44:46.165Z,63.22
2023-02-15T01:47:19.613Z,63.53
2023-02-15T01:49:49.993Z,63.60
2023-02-15T01:52:20.516Z,67.13
2023-02-15T01:54:49.280Z,58.00
2023-02-15T01:57:23.213Z,52.10
2023-02-15T01:59:57.674Z,65.30
2023-02-15T02:02:26.678Z,64.78
2023-02-15T02:05:09.578Z,61.58
2023-02-15T02:07:44.988Z,57.08
2023-02-15T02:10:19.766Z,55.72
2023-02-15T02:12:51.177Z,58.88
2023-02-15T02:15:22.250Z,64.85
2023-02-15T02:17:56.570Z,59.55
2023-02-15T02:20:44.638Z,63.40
2023-02-15T02:23:37.027Z,58.97
2023-02-15T02:26:32.868Z,57.60
2023-02-15T02:29:30.514Z,52.17
2023-02-15T02:32:04.514Z,58.72
2023-02-15T02:34:47.996Z,54.30
2023-02-15T02:37:34.740Z,56.75
2023-02-15T02:40:45.812Z,60.13
2023-02-15T02:43:37.943Z,64.30
2023-02-15T02:46:23.376Z,65.43
2023-02-15T02:48:53.229Z,63.88
2023-02-15T02:51:23.186Z,60.63
2023-02-15T02:53:54.711Z,59.80
2023-02-15T02:56:31.275Z,57.95
2023-02-15T02:59:18.971Z,56.33
2023-02-15T03:02:00.547Z,54.70
2023-02-15T03:04:37.445Z,67.55
2023-02-15T03:07:10.074Z,66.18
2023-02-15T03:09:43.819Z,68.35
2023-02-15T03:12:23.810Z,62.22
2023-02-15T03:14:58.151Z,60.28
2023-02-15T03:17:30.993Z,59.90
2023-02-15T03:20:08.435Z,63.17
2023-02-15T03:22:48.454Z,65.53
2023-02-15T03:25:23.579Z,63.88
2023-02-15T03:28:00.685Z,58.85
2023-02-15T03:30:30.848Z,54.47
2023-02-15T03:33:01.840Z,60.05
2023-02-15T03:35:45.168Z,68.00
2023-02-15T03:38:21.903Z,53.70
2023-02-15T03:41:08.749Z,37.20
2023-02-15T03:43:59.726Z,45.72
2023-02-15T03:46:53.698Z,46.60
2023-02-15T03:49:26.071Z,45.45
2023-02-15T03:54:44.389Z,42.13
2023-02-15T03:57:35.453Z,33.97
2023-02-15T04:00:29.029Z,44.45
2023-02-15T04:03:14.991Z,45.08
2023-02-15T04:05:45.712Z,41.90
2023-02-15T04:08:14.009Z,39.72
2023-02-15T04:10:53.889Z,45.20
2023-02-15T04:13:22.727Z,46.78
2023-02-15T04:16:07.313Z,49.17
2023-02-15T04:19:00.512Z,44.30
2023-02-15T04:21:50.440Z,43.28
2023-02-15T04:24:36.542Z,44.30
2023-02-15T04:27:05.480Z,44.88
2023-02-15T04:29:32.859Z,47.75
2023-02-15T04:32:03.229Z,43.60
2023-02-15T04:34:30.289Z,43.80
2023-02-15T04:36:57.487Z,46.45
2023-02-15T04:39:24.489Z,47.13
2023-02-15T04:41:51.838Z,45.08
2023-02-15T04:44:18.880Z,51.47
2023-02-15T04:46:46.165Z,47.47
2023-02-15T04:49:13.144Z,46.80
2023-02-15T04:51:40.494Z,41.10
2023-02-15T04:54:07.769Z,46.70
2023-02-15T04:56:35.964Z,42.35
2023-02-15T04:59:03.047Z,38.17
2023-02-15T05:01:30.761Z,41.38
2023-02-15T05:03:58.042Z,42.33
2023-02-15T05:06:25.307Z,41.85
2023-02-15T05:08:52.277Z,40.20
2023-02-15T05:11:19.935Z,43.85
2023-02-15T05:13:46.880Z,38.58
2023-02-15T05:16:14.215Z,42.33
2023-02-15T05:18:41.288Z,36.90
2023-02-15T05:21:08.623Z,42.78
2023-02-15T05:23:35.854Z,42.28
2023-02-15T05:26:22.203Z,38.30
2023-02-15T05:28:49.175Z,46.78
2023-02-15T05:31:19.837Z,45.20
2023-02-15T05:33:47.493Z,40.90
2023-02-15T05:36:15.017Z,41.83
2023-02-15T05:38:41.976Z,38.15
2023-02-15T05:41:10.732Z,41.33
2023-02-15T05:43:40.198Z,44.13
2023-02-15T05:46:09.704Z,42.60
2023-02-15T05:48:36.902Z,40.08
2023-02-15T05:51:09.779Z,45.10
2023-02-15T05:53:39.002Z,45.30
2023-02-15T05:56:08.771Z,44.13
2023-02-15T05:58:39.087Z,40.97
2023-02-15T06:01:09.511Z,41.90
2023-02-15T06:03:36.594Z,39.50
2023-02-15T06:06:05.844Z,40.10
2023-02-15T06:08:34.279Z,41.17
2023-02-15T06:11:01.547Z,48.08
2023-02-15T06:13:28.575Z,47.35
2023-02-15T06:15:55.865Z,45.13
2023-02-15T06:18:22.852Z,39.45
2023-02-15T06:20:50.611Z,42.85
2023-02-15T06:23:18.595Z,42.40
2023-02-15T06:25:47.092Z,43.40
2023-02-15T06:28:14.615Z,46.40
2023-02-15T06:30:42.071Z,38.75
2023-02-15T06:33:08.981Z,47.35
2023-02-15T06:35:36.453Z,46.53
2023-02-15T06:38:03.445Z,39.92
2023-02-15T06:40:30.687Z,41.10
2023-02-15T06:42:57.562Z,37.67
2023-02-15T06:45:24.799Z,42.00
2023-02-15T06:47:51.737Z,49.42
2023-02-15T06:50:19.195Z,42.97
2023-02-15T06:52:46.337Z,41.97
2023-02-15T06:55:13.538Z,44.38
2023-02-15T06:57:40.503Z,40.22
2023-02-15T07:00:09.199Z,45.97
2023-02-15T07:02:36.234Z,40.85
2023-02-15T07:05:06.110Z,41.30
2023-02-15T07:07:33.524Z,36.60
2023-02-15T07:10:00.700Z,47.85
2023-02-15T07:12:43.549Z,38.08
2023-02-15T07:15:21.680Z,35.67
2023-02-15T07:17:50.146Z,34.78
2023-02-15T07:20:22.984Z,35.90
2023-02-15T07:22:50.733Z,43.03
2023-02-15T07:25:19.322Z,47.55
2023-02-15T07:27:46.404Z,52.47
2023-02-15T07:30:17.556Z,38.90
2023-02-15T07:33:05.498Z,43.10
2023-02-15T07:35:34.517Z,47.17
2023-02-15T07:38:01.957Z,48.42
2023-02-15T07:40:29.326Z,46.30
2023-02-15T07:43:00.027Z,45.58
2023-02-15T07:45:28.061Z,40.40
2023-02-15T07:47:55.209Z,45.97
2023-02-15T07:50:22.620Z,40.80
2023-02-15T07:52:49.866Z,40.30
2023-02-15T07:55:17.245Z,42.65
2023-02-15T07:57:46.090Z,45.60
2023-02-15T08:00:15.087Z,37.15
2023-02-15T08:02:42.602Z,42.50
2023-02-15T08:05:10.004Z,42.05
2023-02-15T08:07:37.216Z,44.47
2023-02-15T08:10:04.969Z,41.90
2023-02-15T08:12:31.946Z,47.03
2023-02-15T08:15:00.089Z,42.47
2023-02-15T08:17:27.327Z,42.38
2023-02-15T08:19:54.592Z,37.20
2023-02-15T08:22:21.500Z,45.25
2023-02-15T08:24:49.267Z,43.05
2023-02-15T08:27:16.141Z,30.48
2023-02-15T08:29:44.052Z,33.60
2023-02-15T08:32:13.192Z,33.63
2023-02-15T08:34:42.609Z,33.08
2023-02-15T08:37:10.455Z,32.20
2023-02-15T08:39:38.116Z,32.75
2023-02-15T08:42:05.460Z,29.00
2023-02-15T08:44:32.799Z,32.30
2023-02-15T08:47:04.627Z,32.17
2023-02-15T08:49:32.521Z,30.27
2023-02-15T08:51:59.477Z,35.72
2023-02-15T08:54:26.741Z,34.10
2023-02-15T08:56:53.809Z,28.88
2023-02-15T08:59:23.359Z,30.75
2023-02-15T09:01:52.603Z,34.33
2023-02-15T09:04:20.922Z,31.98
2023-02-15T09:06:49.966Z,28.63
2023-02-15T09:09:21.094Z,32.22
2023-02-15T09:11:54.549Z,33.60
2023-02-15T09:14:25.449Z,33.58
2023-02-15T09:16:53.506Z,34.15
2023-02-15T09:19:22.788Z,32.65
2023-02-15T09:21:49.819Z,32.38
2023-02-15T09:24:18.164Z,33.28
2023-02-15T09:26:47.923Z,34.97
2023-02-15T09:29:16.438Z,31.42
2023-02-15T09:31:50.022Z,30.55
2023-02-15T09:34:19.923Z,30.98
2023-02-15T09:36:47.906Z,33.15
2023-02-15T09:39:18.168Z,30.55
2023-02-15T09:41:56.845Z,31.63
2023-02-15T09:44:42.281Z,38.30
2023-02-15T09:47:24.490Z,38.03
2023-02-15T09:50:10.447Z,34.15
2023-02-15T09:52:50.647Z,31.52
2023-02-15T09:55:20.618Z,34.67
2023-02-15T09:58:06.557Z,35.10
2023-02-15T10:00:52.808Z,30.88
2023-02-15T10:03:26.090Z,33.90
2023-02-15T10:06:05.352Z,32.03
2023-02-15T10:09:04.575Z,34.08
2023-02-15T10:11:55.889Z,35.72
2023-02-15T10:14:38.961Z,29.90
2023-02-15T10:17:24.195Z,35.80
2023-02-15T10:20:24.802Z,34.72
2023-02-15T10:23:22.456Z,29.83
2023-02-15T10:26:17.030Z,30.45
2023-02-15T10:28:53.032Z,32.38
2023-02-15T10:31:49.019Z,29.13
2023-02-15T10:34:20.033Z,28.52
2023-02-15T10:37:18.347Z,30.92
2023-02-15T10:39:51.284Z,26.58
2023-02-15T10:42:50.676Z,32.65
2023-02-15T10:46:15.331Z,32.78
2023-02-15T10:49:02.766Z,34.17
2023-02-15T10:51:53.009Z,31.58
2023-02-15T10:54:29.336Z,31.15
2023-02-15T10:56:59.426Z,38.13
2023-02-15T10:59:36.941Z,37.33
2023-02-15T11:02:23.207Z,36.03
2023-02-15T11:05:05.313Z,38.92
2023-02-15T11:07:41.561Z,42.97
2023-02-15T11:10:16.042Z,39.67
2023-02-15T11:12:47.037Z,39.28
2023-02-15T11:15:26.744Z,38.35
2023-02-15T11:18:12.838Z,38.78
2023-02-15T11:20:51.089Z,34.47
2023-02-15T11:23:19.420Z,41.25
2023-02-15T11:25:59.398Z,45.75
2023-02-15T11:28:37.863Z,47.00
2023-02-15T11:31:27.480Z,41.95
2023-02-15T11:34:38.531Z,36.97
2023-02-15T11:37:14.301Z,43.30
2023-02-15T11:39:41.961Z,44.63
2023-02-15T11:42:16.865Z,44.55
2023-02-15T11:45:15.688Z,44.95
2023-02-15T11:47:42.562Z,44.00
2023-02-15T11:50:23.045Z,42.85
2023-02-15T11:52:53.105Z,48.67
2023-02-15T11:55:23.736Z,46.97
2023-02-15T11:58:00.108Z,43.40
2023-02-15T12:00:37.182Z,42.58
2023-02-15T12:03:15.969Z,39.25
2023-02-15T12:05:46.416Z,41.40
2023-02-15T12:08:18.782Z,39.00
2023-02-15T12:11:05.274Z,40.05
2023-02-15T12:13:32.497Z,43.10
2023-02-15T12:16:09.281Z,41.22
2023-02-15T12:18:45.293Z,41.60
2023-02-15T12:21:25.382Z,36.88
2023-02-15T12:23:56.723Z,44.42
2023-02-15T12:26:31.816Z,41.10
2023-02-15T12:29:17.544Z,41.72
2023-02-15T12:31:51.222Z,45.00
2023-02-15T12:34:32.598Z,44.35
2023-02-15T12:39:36.969Z,50.22
2023-02-15T12:42:16.587Z,52.30
2023-02-15T12:45:22.196Z,48.65
2023-02-15T12:48:11.163Z,46.15
2023-02-15T12:50:38.238Z,50.22
2023-02-15T12:53:20.076Z,48.67
2023-02-15T12:55:59.324Z,50.67
2023-02-15T12:58:29.178Z,46.70
2023-02-15T13:01:25.568Z,50.70
2023-02-15T13:04:05.324Z,46.15
2023-02-15T13:06:37.650Z,47.28
2023-02-15T13:09:21.217Z,47.10
2023-02-15T13:11:48.636Z,48.47
2023-02-15T13:14:27.570Z,44.88
2023-02-15T13:17:00.089Z,46.72
2023-02-15T13:19:41.181Z,45.35
2023-02-15T13:22:17.641Z,49.37
2023-02-15T13:25:00.506Z,48.28
2023-02-15T13:27:40.215Z,49.47
2023-02-15T13:30:25.974Z,55.78
2023-02-15T13:32:58.556Z,48.63
2023-02-15T13:35:29.439Z,46.28
2023-02-15T13:38:14.478Z,50.83
2023-02-15T13:41:00.073Z,51.22
2023-02-15T13:43:34.710Z,46.47
2023-02-15T13:46:14.134Z,50.83
2023-02-15T13:49:10.431Z,54.20
2023-02-15T13:52:02.485Z,48.00
2023-02-15T13:57:59.748Z,50.00
2023-02-15T14:00:49.030Z,53.47
2023-02-15T14:03:40.976Z,47.38
2023-02-15T14:06:40.285Z,53.90
2023-02-15T14:09:33.299Z,55.65
2023-02-15T14:12:15.700Z,56.67
2023-02-15T14:15:14.070Z,52.47
2023-02-15T14:17:53.181Z,56.13
2023-02-15T14:20:57.667Z,56.50
2023-02-15T14:23:31.915Z,58.58
2023-02-15T14:26:24.075Z,61.85
2023-02-15T14:31:32.176Z,59.42
2023-02-15T14:33:59.253Z,66.95
2023-02-15T14:36:31.317Z,67.65
2023-02-15T14:39:30.314Z,53.92
2023-02-15T14:42:06.338Z,53.70
2023-02-15T14:44:48.789Z,61.10
2023-02-15T14:47:23.365Z,49.45
2023-02-15T14:49:50.265Z,56.53
2023-02-15T14:52:17.569Z,56.97
2023-02-15T14:54:47.594Z,55.17
2023-02-15T14:57:14.845Z,56.67
2023-02-15T14:59:46.447Z,49.67
2023-02-15T15:02:18.195Z,57.53
2023-02-15T15:04:51.336Z,56.03
2023-02-15T15:07:37.215Z,58.83
2023-02-15T15:10:19.194Z,55.35
2023-02-15T15:12:50.156Z,59.30
2023-02-15T15:15:32.194Z,57.70
2023-02-15T15:18:10.711Z,46.80
2023-02-15T15:20:52.728Z,44.90
2023-02-15T15:23:20.025Z,45.70
2023-02-15T15:25:52.868Z,44.58
2023-02-15T15:28:35.148Z,46.47
2023-02-15T15:31:17.440Z,45.42
2023-02-15T15:34:22.576Z,52.88
2023-02-15T15:37:07.988Z,47.80
2023-02-15T15:39:44.309Z,49.80
2023-02-15T15:42:45.561Z,48.17
2023-02-15T15:45:38.669Z,49.75
2023-02-15T15:48:07.573Z,49.22
2023-02-15T15:50:35.213Z,55.70
2023-02-15T15:53:04.285Z,50.03
2023-02-15T15:55:34.680Z,60.75
2023-02-15T15:58:08.296Z,44.13
2023-02-15T16:00:39.488Z,51.10
2023-02-15T16:03:06.783Z,50.92
2023-02-15T16:05:39.416Z,45.13
2023-02-15T16:08:06.949Z,49.95
2023-02-15T16:10:37.102Z,49.92
2023-02-15T16:13:05.792Z,44.45
2023-02-15T16:15:50.831Z,46.22
2023-02-15T16:18:19.840Z,46.15
2023-02-15T16:20:54.246Z,46.75
2023-02-15T16:23:39.250Z,46.45
2023-02-15T16:26:18.758Z,44.80
2023-02-15T16:28:53.929Z,50.38
2023-02-15T16:31:25.962Z,45.42
2023-02-15T16:33:56.141Z,47.75
2023-02-15T16:36:26.174Z,50.83
2023-02-15T16:38:53.532Z,43.70
2023-02-15T16:41:28.206Z,50.28
2023-02-15T16:43:58.081Z,48.22
2023-02-15T16:46:32.594Z,45.70
2023-02-15T16:49:03.219Z,48.88
2023-02-15T16:51:33.682Z,49.58
2023-02-15T16:54:08.963Z,53.50
2023-02-15T16:56:37.498Z,56.97
2023-02-15T16:59:04.562Z,48.92
2023-02-15T17:01:33.804Z,55.90
2023-02-15T17:04:32.592Z,55.95
2023-02-15T17:07:17.411Z,62.28
2023-02-15T17:09:56.410Z,49.42
2023-02-15T17:12:56.171Z,53.85
2023-02-15T17:15:38.051Z,52.15
2023-02-15T17:18:21.620Z,55.80
2023-02-15T17:20:50.964Z,50.90
2023-02-15T17:23:49.264Z,52.25
2023-02-15T17:26:21.477Z,48.60
2023-02-15T17:28:59.026Z,56.78
2023-02-15T17:31:30.824Z,61.85
2023-02-15T17:33:59.396Z,52.55
2023-02-15T17:36:30.384Z,51.38
2023-02-15T17:38:57.797Z,51.70
2023-02-15T17:41:25.248Z,58.03
2023-02-15T17:43:52.755Z,64.00
2023-02-15T17:46:22.942Z,54.97
2023-02-15T17:48:52.888Z,52.70
2023-02-15T17:51:20.851Z,45.92
2023-02-15T17:54:08.728Z,51.75
2023-02-15T17:56:37.962Z,48.47
2023-02-15T17:59:10.335Z,56.10
2023-02-15T18:02:02.518Z,54.63
2023-02-15T18:04:49.825Z,58.13
2023-02-15T18:07:37.485Z,57.42
2023-02-15T18:10:36.187Z,56.50
2023-02-15T18:13:03.856Z,53.47
2023-02-15T18:15:31.208Z,52.70
2023-02-15T18:17:58.303Z,62.88
2023-02-15T18:20:36.815Z,51.70
2023-02-15T18:23:03.846Z,59.15
2023-02-15T18:25:31.434Z,58.00
2023-02-15T18:27:58.719Z,58.45
2023-02-15T18:30:27.009Z,55.95
2023-02-15T18:32:59.250Z,56.28
2023-02-15T18:35:30.243Z,54.67
2023-02-15T18:37:58.309Z,60.80
2023-02-15T18:40:27.573Z,59.40
2023-02-15T18:42:56.971Z,59.47
2023-02-15T18:45:32.884Z,59.88
2023-02-15T18:48:00.095Z,60.88
2023-02-15T18:50:31.036Z,59.10
2023-02-15T18:52:58.023Z,62.55
2023-02-15T18:55:29.086Z,62.83
2023-02-15T18:57:57.351Z,60.80
2023-02-15T19:00:30.670Z,56.25
2023-02-15T19:02:58.165Z,71.40
2023-02-15T19:05:28.173Z,63.13
2023-02-15T19:07:57.338Z,61.80
2023-02-15T19:10:26.440Z,62.08
2023-02-15T19:12:54.544Z,60.65
2023-02-15T19:15:24.804Z,62.55
2023-02-15T19:17:52.780Z,61.42
2023-02-15T19:20:26.459Z,62.20
2023-02-15T19:22:55.691Z,59.03
2023-02-15T19:25:28.585Z,70.60
2023-02-15T19:27:56.445Z,67.22
2023-02-15T19:30:29.966Z,64.15
2023-02-15T19:32:58.670Z,62.63
2023-02-15T19:35:35.632Z,63.63
2023-02-15T19:38:07.983Z,61.38
2023-02-15T19:40:36.580Z,62.70
2023-02-15T19:43:04.512Z,60.83
2023-02-15T19:45:32.733Z,61.00
2023-02-15T19:48:02.530Z,64.07
2023-02-15T19:50:31.561Z,65.90
2023-02-15T19:52:59.271Z,65.22
2023-02-15T19:55:32.762Z,71.38
2023-02-15T19:58:01.999Z,63.67
2023-02-15T20:00:32.333Z,64.47
2023-02-15T20:03:00.362Z,60.92
2023-02-15T20:05:30.358Z,63.67
2023-02-15T20:07:58.058Z,68.25
2023-02-15T20:10:30.909Z,66.35
2023-02-15T20:12:58.079Z,65.22
2023-02-15T20:15:34.618Z,68.90
2023-02-15T20:18:04.138Z,67.72
2023-02-15T20:20:39.138Z,65.22
2023-02-15T20:23:07.148Z,71.18
2023-02-15T20:25:34.557Z,71.93
2023-02-15T20:28:01.826Z,73.28
2023-02-15T20:30:31.989Z,70.95
2023-02-15T20:32:59.797Z,69.68
2023-02-15T20:35:29.258Z,71.82
2023-02-15T20:38:03.117Z,72.68
2023-02-15T20:40:33.478Z,74.72
2023-02-15T20:43:01.220Z,76.05
2023-02-15T20:45:31.566Z,71.85
2023-02-15T20:48:01.942Z,80.47
2023-02-15T20:50:32.222Z,76.32
2023-02-15T20:53:02.641Z,76.93
2023-02-15T20:55:31.690Z,71.70
2023-02-15T20:57:59.678Z,75.55
2023-02-15T21:00:29.375Z,68.55
2023-02-15T21:03:01.357Z,75.55
2023-02-15T21:05:35.618Z,77.40
2023-02-15T21:08:02.637Z,79.60
2023-02-15T21:10:34.314Z,72.32
2023-02-15T21:13:01.579Z,75.63
2023-02-15T21:15:35.591Z,72.50
2023-02-15T21:18:05.660Z,78.40
2023-02-15T21:20:35.155Z,78.03
2023-02-15T21:23:04.778Z,73.93
2023-02-15T21:25:36.617Z,72.70
2023-02-15T21:28:05.534Z,70.05
2023-02-15T21:30:32.805Z,85.22
2023-02-15T21:32:59.849Z,85.45
2023-02-15T21:35:28.696Z,78.22
2023-02-15T21:37:56.483Z,80.88
2023-02-15T21:40:27.701Z,76.20
2023-02-15T21:43:13.584Z,74.82
2023-02-15T21:45:59.386Z,84.05
2023-02-15T21:48:26.270Z,73.13
2023-02-15T21:51:13.142Z,75.25
2023-02-15T21:53:43.150Z,84.22
2023-02-15T21:56:16.703Z,76.03
2023-02-15T21:58:43.635Z,87.38
2023-02-15T22:01:21.940Z,75.80
2023-02-15T22:03:49.750Z,77.53
2023-02-15T22:06:17.257Z,78.78
2023-02-15T22:08:44.747Z,94.88
2023-02-15T22:11:14.195Z,89.72
2023-02-15T22:13:42.803Z,90.10
2023-02-15T22:16:16.699Z,92.45
2023-02-15T22:18:43.666Z,78.28
2023-02-15T22:21:11.733Z,84.63
2023-02-15T22:23:39.119Z,90.72
2023-02-15T22:26:28.286Z,93.53
2023-02-15T22:28:56.801Z,91.25
2023-02-15T22:31:24.160Z,97.57
2023-02-15T22:33:51.338Z,95.53
2023-02-15T22:36:30.233Z,96.60
2023-02-15T22:38:57.916Z,102.85
2023-02-15T22:41:29.120Z,99.63
2023-02-15T22:43:56.905Z,99.28
2023-02-15T22:46:25.803Z,101.20
2023-02-15T22:48:53.019Z,99.45
2023-02-15T22:51:23.408Z,98.55
2023-02-15T22:53:54.089Z,106.50
2023-02-15T22:56:52.396Z,95.18
2023-02-15T22:59:23.882Z,104.47
2023-02-15T23:01:51.232Z,104.47
2023-02-15T23:04:21.416Z,113.30
2023-02-15T23:06:49.871Z,112.23
2023-02-15T23:09:17.199Z,105.93
2023-02-15T23:11:45.959Z,111.57
2023-02-15T23:14:25.916Z,118.20
2023-02-15T23:16:54.057Z,102.70
2023-02-15T23:19:21.423Z,107.38
2023-02-15T23:21:48.872Z,118.05
2023-02-15T23:24:22.137Z,121.00
2023-02-15T23:31:27.670Z,101.55
2023-02-15T23:43:06.125Z,114.00
2023-02-15T23:45:38.114Z,115.05
2023-02-15T23:48:35.698Z,128.38
2023-02-15T23:51:03.736Z,122.43
2023-02-15T23:53:32.041Z,112.90
2023-02-15T23:55:59.637Z,104.03
2023-02-15T23:58:38.885Z,112.15
